sensor_id;sensor_type;location;lat;lon;timestamp;P1;durP1;ratioP1;P2;durP2;ratioP2
67564;SDS011;54393;53.556;49.216;2022-07-18T00:01:07;3.53;;;3.33;;
67564;SDS011;54393;53.556;49.216;2022-07-18T00:03:34;3.92;;;3.70;;
67564;SDS011;54393;53.556;49.216;2022-07-18T00:06:00;4.00;;;3.70;;
67564;SDS011;54393;53.556;49.216;2022-07-18T00:08:27;4.00;;;3.70;;
67564;SDS011;54393;53.556;49.216;2022-07-18T00:10:53;3.83;;;3.55;;
67564;SDS011;54393;53.556;49.216;2022-07-18T00:13:19;4.10;;;3.70;;
67564;SDS011;54393;53.556;49.216;2022-07-18T00:15:47;4.68;;;3.67;;
67564;SDS011;54393;53.556;49.216;2022-07-18T00:18:13;4.75;;;3.80;;
67564;SDS011;54393;53.556;49.216;2022-07-18T00:20:40;4.32;;;3.90;;
67564;SDS011;54393;53.556;49.216;2022-07-18T00:23:07;4.37;;;4.07;;
67564;SDS011;54393;53.556;49.216;2022-07-18T00:25:34;4.07;;;3.78;;
67564;SDS011;54393;53.556;49.216;2022-07-18T00:28:00;3.83;;;3.53;;
67564;SDS011;54393;53.556;49.216;2022-07-18T00:30:27;5.00;;;4.50;;
67564;SDS011;54393;53.556;49.216;2022-07-18T00:32:53;4.50;;;4.10;;
67564;SDS011;54393;53.556;49.216;2022-07-18T00:35:20;4.20;;;3.90;;
67564;SDS011;54393;53.556;49.216;2022-07-18T00:37:46;4.70;;;4.30;;
67564;SDS011;54393;53.556;49.216;2022-07-18T00:40:13;4.00;;;3.70;;
67564;SDS011;54393;53.556;49.216;2022-07-18T00:42:39;4.40;;;4.10;;
67564;SDS011;54393;53.556;49.216;2022-07-18T00:45:06;4.30;;;4.00;;
67564;SDS011;54393;53.556;49.216;2022-07-18T00:47:33;4.03;;;3.72;;
67564;SDS011;54393;53.556;49.216;2022-07-18T00:49:59;4.37;;;3.97;;
67564;SDS011;54393;53.556;49.216;2022-07-18T00:52:28;4.10;;;3.80;;
67564;SDS011;54393;53.556;49.216;2022-07-18T00:54:55;4.55;;;4.12;;
67564;SDS011;54393;53.556;49.216;2022-07-18T00:57:21;4.45;;;4.10;;
67564;SDS011;54393;53.556;49.216;2022-07-18T00:59:48;4.30;;;4.00;;
67564;SDS011;54393;53.556;49.216;2022-07-18T01:02:34;4.40;;;4.00;;
67564;SDS011;54393;53.556;49.216;2022-07-18T01:05:00;4.72;;;4.32;;
67564;SDS011;54393;53.556;49.216;2022-07-18T01:07:27;4.03;;;3.70;;
67564;SDS011;54393;53.556;49.216;2022-07-18T01:09:53;4.10;;;3.80;;
67564;SDS011;54393;53.556;49.216;2022-07-18T01:12:20;4.90;;;4.50;;
67564;SDS011;54393;53.556;49.216;2022-07-18T01:14:46;4.40;;;4.07;;
67564;SDS011;54393;53.556;49.216;2022-07-18T01:17:14;4.15;;;3.83;;
67564;SDS011;54393;53.556;49.216;2022-07-18T01:19:41;3.90;;;3.60;;
67564;SDS011;54393;53.556;49.216;2022-07-18T01:22:08;3.92;;;3.62;;
67564;SDS011;54393;53.556;49.216;2022-07-18T01:24:36;4.25;;;3.95;;
67564;SDS011;54393;53.556;49.216;2022-07-18T01:27:02;4.47;;;4.18;;
67564;SDS011;54393;53.556;49.216;2022-07-18T01:29:29;4.32;;;4.03;;
67564;SDS011;54393;53.556;49.216;2022-07-18T01:31:55;5.10;;;4.30;;
67564;SDS011;54393;53.556;49.216;2022-07-18T01:34:22;4.18;;;3.87;;
67564;SDS011;54393;53.556;49.216;2022-07-18T01:36:49;4.35;;;4.05;;
67564;SDS011;54393;53.556;49.216;2022-07-18T01:39:15;4.72;;;3.58;;
67564;SDS011;54393;53.556;49.216;2022-07-18T01:41:42;4.15;;;3.85;;
67564;SDS011;54393;53.556;49.216;2022-07-18T01:44:09;3.80;;;3.53;;
67564;SDS011;54393;53.556;49.216;2022-07-18T01:46:35;3.90;;;3.60;;
67564;SDS011;54393;53.556;49.216;2022-07-18T01:49:01;4.05;;;3.80;;
67564;SDS011;54393;53.556;49.216;2022-07-18T01:51:28;4.55;;;4.15;;
67564;SDS011;54393;53.556;49.216;2022-07-18T01:53:56;4.18;;;3.78;;
67564;SDS011;54393;53.556;49.216;2022-07-18T01:56:24;4.22;;;3.92;;
67564;SDS011;54393;53.556;49.216;2022-07-18T01:58:51;4.00;;;3.70;;
67564;SDS011;54393;53.556;49.216;2022-07-18T02:01:17;3.97;;;3.78;;
67564;SDS011;54393;53.556;49.216;2022-07-18T02:03:43;4.05;;;3.75;;
67564;SDS011;54393;53.556;49.216;2022-07-18T02:06:10;4.18;;;3.78;;
67564;SDS011;54393;53.556;49.216;2022-07-18T02:08:36;3.92;;;3.62;;
67564;SDS011;54393;53.556;49.216;2022-07-18T02:11:03;3.85;;;3.55;;
67564;SDS011;54393;53.556;49.216;2022-07-18T02:13:30;3.90;;;3.70;;
67564;SDS011;54393;53.556;49.216;2022-07-18T02:15:56;3.90;;;3.60;;
67564;SDS011;54393;53.556;49.216;2022-07-18T02:18:22;4.35;;;3.95;;
67564;SDS011;54393;53.556;49.216;2022-07-18T02:20:49;3.90;;;3.60;;
67564;SDS011;54393;53.556;49.216;2022-07-18T02:23:15;3.83;;;3.62;;
67564;SDS011;54393;53.556;49.216;2022-07-18T02:25:42;3.67;;;3.40;;
67564;SDS011;54393;53.556;49.216;2022-07-18T02:28:08;3.80;;;3.60;;
67564;SDS011;54393;53.556;49.216;2022-07-18T02:30:35;3.60;;;3.40;;
67564;SDS011;54393;53.556;49.216;2022-07-18T02:33:01;3.62;;;3.42;;
67564;SDS011;54393;53.556;49.216;2022-07-18T02:35:28;3.58;;;3.37;;
67564;SDS011;54393;53.556;49.216;2022-07-18T02:37:54;4.10;;;3.80;;
67564;SDS011;54393;53.556;49.216;2022-07-18T02:40:21;3.67;;;3.47;;
67564;SDS011;54393;53.556;49.216;2022-07-18T02:42:47;3.65;;;3.45;;
67564;SDS011;54393;53.556;49.216;2022-07-18T02:45:14;3.80;;;3.50;;
67564;SDS011;54393;53.556;49.216;2022-07-18T02:47:40;3.67;;;3.37;;
67564;SDS011;54393;53.556;49.216;2022-07-18T02:50:07;3.17;;;2.97;;
67564;SDS011;54393;53.556;49.216;2022-07-18T02:52:34;3.78;;;3.50;;
67564;SDS011;54393;53.556;49.216;2022-07-18T02:55:01;3.45;;;3.20;;
67564;SDS011;54393;53.556;49.216;2022-07-18T02:57:28;3.53;;;3.30;;
67564;SDS011;54393;53.556;49.216;2022-07-18T02:59:54;3.50;;;3.20;;
67564;SDS011;54393;53.556;49.216;2022-07-18T03:02:21;3.70;;;3.40;;
67564;SDS011;54393;53.556;49.216;2022-07-18T03:04:47;3.33;;;3.12;;
67564;SDS011;54393;53.556;49.216;2022-07-18T03:07:14;3.80;;;3.60;;
67564;SDS011;54393;53.556;49.216;2022-07-18T03:09:40;3.67;;;3.37;;
67564;SDS011;54393;53.556;49.216;2022-07-18T03:12:07;3.70;;;3.40;;
67564;SDS011;54393;53.556;49.216;2022-07-18T03:14:33;3.42;;;3.22;;
67564;SDS011;54393;53.556;49.216;2022-07-18T03:17:00;3.35;;;3.15;;
67564;SDS011;54393;53.556;49.216;2022-07-18T03:19:26;3.30;;;3.10;;
67564;SDS011;54393;53.556;49.216;2022-07-18T03:21:53;3.58;;;3.37;;
67564;SDS011;54393;53.556;49.216;2022-07-18T03:24:19;3.70;;;3.40;;
67564;SDS011;54393;53.556;49.216;2022-07-18T03:26:46;3.60;;;3.30;;
67564;SDS011;54393;53.556;49.216;2022-07-18T03:29:12;3.20;;;3.00;;
67564;SDS011;54393;53.556;49.216;2022-07-18T03:31:39;3.70;;;3.50;;
67564;SDS011;54393;53.556;49.216;2022-07-18T03:34:05;3.90;;;3.50;;
67564;SDS011;54393;53.556;49.216;2022-07-18T03:36:32;3.83;;;3.53;;
67564;SDS011;54393;53.556;49.216;2022-07-18T03:38:58;3.72;;;3.42;;
67564;SDS011;54393;53.556;49.216;2022-07-18T03:41:25;4.07;;;3.78;;
67564;SDS011;54393;53.556;49.216;2022-07-18T03:43:52;4.10;;;3.80;;
67564;SDS011;54393;53.556;49.216;2022-07-18T03:46:18;4.00;;;3.70;;
67564;SDS011;54393;53.556;49.216;2022-07-18T03:48:45;4.05;;;3.75;;
67564;SDS011;54393;53.556;49.216;2022-07-18T03:51:12;3.37;;;3.17;;
67564;SDS011;54393;53.556;49.216;2022-07-18T03:53:38;4.18;;;3.87;;
67564;SDS011;54393;53.556;49.216;2022-07-18T03:56:05;4.00;;;3.47;;
67564;SDS011;54393;53.556;49.216;2022-07-18T03:58:31;3.90;;;3.53;;
67564;SDS011;54393;53.556;49.216;2022-07-18T04:00:58;4.00;;;3.60;;
67564;SDS011;54393;53.556;49.216;2022-07-18T04:03:24;4.80;;;3.80;;
67564;SDS011;54393;53.556;49.216;2022-07-18T04:05:51;4.12;;;3.72;;
67564;SDS011;54393;53.556;49.216;2022-07-18T04:08:17;4.10;;;3.80;;
67564;SDS011;54393;53.556;49.216;2022-07-18T04:10:44;3.85;;;3.55;;
67564;SDS011;54393;53.556;49.216;2022-07-18T04:13:10;3.80;;;3.50;;
67564;SDS011;54393;53.556;49.216;2022-07-18T04:15:37;4.37;;;3.75;;
67564;SDS011;54393;53.556;49.216;2022-07-18T04:18:05;4.03;;;3.70;;
67564;SDS011;54393;53.556;49.216;2022-07-18T04:20:32;3.78;;;3.55;;
67564;SDS011;54393;53.556;49.216;2022-07-18T04:23:00;4.00;;;3.70;;
67564;SDS011;54393;53.556;49.216;2022-07-18T04:25:28;4.12;;;3.83;;
67564;SDS011;54393;53.556;49.216;2022-07-18T04:27:59;3.83;;;3.53;;
67564;SDS011;54393;53.556;49.216;2022-07-18T04:30:26;3.60;;;3.30;;
67564;SDS011;54393;53.556;49.216;2022-07-18T04:32:54;4.35;;;3.60;;
67564;SDS011;54393;53.556;49.216;2022-07-18T04:35:21;3.58;;;3.28;;
67564;SDS011;54393;53.556;49.216;2022-07-18T04:37:48;4.03;;;3.70;;
67564;SDS011;54393;53.556;49.216;2022-07-18T04:40:15;3.83;;;3.53;;
67564;SDS011;54393;53.556;49.216;2022-07-18T04:42:42;3.90;;;3.60;;
67564;SDS011;54393;53.556;49.216;2022-07-18T04:45:09;4.28;;;3.62;;
67564;SDS011;54393;53.556;49.216;2022-07-18T04:47:36;3.30;;;3.10;;
67564;SDS011;54393;53.556;49.216;2022-07-18T04:50:03;5.35;;;3.70;;
67564;SDS011;54393;53.556;49.216;2022-07-18T04:52:41;3.75;;;3.53;;
67564;SDS011;54393;53.556;49.216;2022-07-18T04:55:08;4.45;;;3.33;;
67564;SDS011;54393;53.556;49.216;2022-07-18T04:57:36;4.00;;;3.70;;
67564;SDS011;54393;53.556;49.216;2022-07-18T05:00:03;4.70;;;3.67;;
67564;SDS011;54393;53.556;49.216;2022-07-18T05:02:38;5.07;;;3.60;;
67564;SDS011;54393;53.556;49.216;2022-07-18T05:05:08;4.05;;;3.53;;
67564;SDS011;54393;53.556;49.216;2022-07-18T05:07:36;4.30;;;3.67;;
67564;SDS011;54393;53.556;49.216;2022-07-18T05:10:04;5.50;;;3.70;;
67564;SDS011;54393;53.556;49.216;2022-07-18T05:12:36;4.80;;;3.90;;
67564;SDS011;54393;53.556;49.216;2022-07-18T05:15:07;3.97;;;3.62;;
67564;SDS011;54393;53.556;49.216;2022-07-18T05:17:35;4.62;;;3.72;;
67564;SDS011;54393;53.556;49.216;2022-07-18T05:20:06;5.15;;;3.60;;
67564;SDS011;54393;53.556;49.216;2022-07-18T05:22:34;4.18;;;3.78;;
67564;SDS011;54393;53.556;49.216;2022-07-18T05:25:02;5.30;;;3.30;;
67564;SDS011;54393;53.556;49.216;2022-07-18T05:27:29;4.00;;;3.70;;
67564;SDS011;54393;53.556;49.216;2022-07-18T05:29:55;3.75;;;3.45;;
67564;SDS011;54393;53.556;49.216;2022-07-18T05:32:24;7.78;;;3.80;;
67564;SDS011;54393;53.556;49.216;2022-07-18T05:34:51;5.72;;;3.70;;
67564;SDS011;54393;53.556;49.216;2022-07-18T05:37:18;5.35;;;3.45;;
67564;SDS011;54393;53.556;49.216;2022-07-18T05:39:44;5.72;;;3.90;;
67564;SDS011;54393;53.556;49.216;2022-07-18T05:42:11;5.28;;;3.55;;
67564;SDS011;54393;53.556;49.216;2022-07-18T05:44:37;8.30;;;3.97;;
67564;SDS011;54393;53.556;49.216;2022-07-18T05:47:04;4.60;;;3.28;;
67564;SDS011;54393;53.556;49.216;2022-07-18T05:49:30;3.50;;;3.20;;
67564;SDS011;54393;53.556;49.216;2022-07-18T05:51:57;6.60;;;3.60;;
67564;SDS011;54393;53.556;49.216;2022-07-18T05:54:23;5.95;;;4.03;;
67564;SDS011;54393;53.556;49.216;2022-07-18T05:56:50;4.35;;;3.80;;
67564;SDS011;54393;53.556;49.216;2022-07-18T05:59:18;4.78;;;3.58;;
67564;SDS011;54393;53.556;49.216;2022-07-18T06:01:45;3.87;;;3.28;;
67564;SDS011;54393;53.556;49.216;2022-07-18T06:04:12;5.43;;;3.90;;
67564;SDS011;54393;53.556;49.216;2022-07-18T06:06:39;4.70;;;3.70;;
67564;SDS011;54393;53.556;49.216;2022-07-18T06:09:06;3.85;;;3.55;;
67564;SDS011;54393;53.556;49.216;2022-07-18T06:11:33;3.65;;;3.15;;
67564;SDS011;54393;53.556;49.216;2022-07-18T06:14:00;4.57;;;3.80;;
67564;SDS011;54393;53.556;49.216;2022-07-18T06:16:30;4.85;;;3.25;;
67564;SDS011;54393;53.556;49.216;2022-07-18T06:18:58;5.35;;;3.75;;
67564;SDS011;54393;53.556;49.216;2022-07-18T06:21:25;4.03;;;3.22;;
67564;SDS011;54393;53.556;49.216;2022-07-18T06:23:51;6.35;;;4.10;;
67564;SDS011;54393;53.556;49.216;2022-07-18T06:26:18;4.20;;;3.37;;
67564;SDS011;54393;53.556;49.216;2022-07-18T06:28:44;3.40;;;3.10;;
67564;SDS011;54393;53.556;49.216;2022-07-18T06:31:11;4.57;;;3.10;;
67564;SDS011;54393;53.556;49.216;2022-07-18T06:33:40;4.57;;;3.17;;
67564;SDS011;54393;53.556;49.216;2022-07-18T06:36:07;3.65;;;3.25;;
67564;SDS011;54393;53.556;49.216;2022-07-18T06:38:33;7.95;;;3.78;;
67564;SDS011;54393;53.556;49.216;2022-07-18T06:41:00;3.50;;;3.20;;
67564;SDS011;54393;53.556;49.216;2022-07-18T06:43:26;4.10;;;3.40;;
67564;SDS011;54393;53.556;49.216;2022-07-18T06:45:53;3.58;;;3.25;;
67564;SDS011;54393;53.556;49.216;2022-07-18T06:48:22;3.72;;;2.80;;
67564;SDS011;54393;53.556;49.216;2022-07-18T06:50:49;3.92;;;3.30;;
67564;SDS011;54393;53.556;49.216;2022-07-18T06:53:15;3.42;;;3.15;;
67564;SDS011;54393;53.556;49.216;2022-07-18T06:55:42;3.42;;;3.08;;
67564;SDS011;54393;53.556;49.216;2022-07-18T06:58:08;3.53;;;3.22;;
67564;SDS011;54393;53.556;49.216;2022-07-18T07:00:35;3.85;;;3.37;;
67564;SDS011;54393;53.556;49.216;2022-07-18T07:03:01;3.50;;;3.22;;
67564;SDS011;54393;53.556;49.216;2022-07-18T07:05:28;3.50;;;3.17;;
67564;SDS011;54393;53.556;49.216;2022-07-18T07:07:54;3.22;;;3.00;;
67564;SDS011;54393;53.556;49.216;2022-07-18T07:10:21;3.67;;;3.08;;
67564;SDS011;54393;53.556;49.216;2022-07-18T07:12:48;3.40;;;3.10;;
67564;SDS011;54393;53.556;49.216;2022-07-18T07:15:17;3.37;;;3.17;;
67564;SDS011;54393;53.556;49.216;2022-07-18T07:17:44;3.80;;;2.90;;
67564;SDS011;54393;53.556;49.216;2022-07-18T07:20:11;4.25;;;2.92;;
67564;SDS011;54393;53.556;49.216;2022-07-18T07:22:42;4.40;;;3.20;;
67564;SDS011;54393;53.556;49.216;2022-07-18T07:25:12;3.40;;;3.10;;
67564;SDS011;54393;53.556;49.216;2022-07-18T07:27:39;4.75;;;3.20;;
67564;SDS011;54393;53.556;49.216;2022-07-18T07:30:06;4.25;;;2.90;;
67564;SDS011;54393;53.556;49.216;2022-07-18T07:32:36;4.57;;;2.83;;
67564;SDS011;54393;53.556;49.216;2022-07-18T07:35:04;3.28;;;3.05;;
67564;SDS011;54393;53.556;49.216;2022-07-18T07:37:32;3.83;;;2.70;;
67564;SDS011;54393;53.556;49.216;2022-07-18T07:39:59;4.32;;;3.33;;
67564;SDS011;54393;53.556;49.216;2022-07-18T07:42:25;3.50;;;3.20;;
67564;SDS011;54393;53.556;49.216;2022-07-18T07:44:52;3.22;;;2.92;;
67564;SDS011;54393;53.556;49.216;2022-07-18T07:47:18;2.95;;;2.75;;
67564;SDS011;54393;53.556;49.216;2022-07-18T07:49:45;3.10;;;2.90;;
67564;SDS011;54393;53.556;49.216;2022-07-18T07:52:11;3.05;;;2.85;;
67564;SDS011;54393;53.556;49.216;2022-07-18T07:54:39;3.05;;;2.58;;
67564;SDS011;54393;53.556;49.216;2022-07-18T07:57:05;4.05;;;3.10;;
67564;SDS011;54393;53.556;49.216;2022-07-18T07:59:32;3.10;;;2.90;;
67564;SDS011;54393;53.556;49.216;2022-07-18T08:01:58;3.00;;;2.80;;
67564;SDS011;54393;53.556;49.216;2022-07-18T08:04:25;3.70;;;2.90;;
67564;SDS011;54393;53.556;49.216;2022-07-18T08:06:51;2.87;;;2.67;;
67564;SDS011;54393;53.556;49.216;2022-07-18T08:09:18;4.03;;;2.92;;
67564;SDS011;54393;53.556;49.216;2022-07-18T08:11:44;3.17;;;2.87;;
67564;SDS011;54393;53.556;49.216;2022-07-18T08:14:11;2.75;;;2.55;;
67564;SDS011;54393;53.556;49.216;2022-07-18T08:16:37;3.40;;;2.70;;
67564;SDS011;54393;53.556;49.216;2022-07-18T08:19:04;3.08;;;2.72;;
67564;SDS011;54393;53.556;49.216;2022-07-18T08:21:31;3.17;;;2.95;;
67564;SDS011;54393;53.556;49.216;2022-07-18T08:23:57;2.97;;;2.78;;
67564;SDS011;54393;53.556;49.216;2022-07-18T08:26:24;2.62;;;2.50;;
67564;SDS011;54393;53.556;49.216;2022-07-18T08:28:51;2.70;;;2.50;;
67564;SDS011;54393;53.556;49.216;2022-07-18T08:31:18;2.80;;;2.70;;
67564;SDS011;54393;53.556;49.216;2022-07-18T08:33:44;2.85;;;2.65;;
67564;SDS011;54393;53.556;49.216;2022-07-18T08:36:11;3.17;;;2.97;;
67564;SDS011;54393;53.556;49.216;2022-07-18T08:38:37;2.53;;;2.42;;
67564;SDS011;54393;53.556;49.216;2022-07-18T08:41:04;3.50;;;2.40;;
67564;SDS011;54393;53.556;49.216;2022-07-18T08:43:31;3.03;;;2.80;;
67564;SDS011;54393;53.556;49.216;2022-07-18T08:46:04;2.85;;;2.65;;
67564;SDS011;54393;53.556;49.216;2022-07-18T08:48:31;3.12;;;2.92;;
67564;SDS011;54393;53.556;49.216;2022-07-18T08:50:58;2.92;;;2.72;;
67564;SDS011;54393;53.556;49.216;2022-07-18T08:53:26;3.85;;;2.80;;
67564;SDS011;54393;53.556;49.216;2022-07-18T08:55:52;2.78;;;2.58;;
67564;SDS011;54393;53.556;49.216;2022-07-18T08:58:19;3.03;;;2.65;;
67564;SDS011;54393;53.556;49.216;2022-07-18T09:00:46;3.10;;;2.90;;
67564;SDS011;54393;53.556;49.216;2022-07-18T09:03:12;2.90;;;2.70;;
67564;SDS011;54393;53.556;49.216;2022-07-18T09:05:39;3.08;;;2.87;;
67564;SDS011;54393;53.556;49.216;2022-07-18T09:08:17;3.05;;;2.85;;
67564;SDS011;54393;53.556;49.216;2022-07-18T09:10:51;3.20;;;2.90;;
67564;SDS011;54393;53.556;49.216;2022-07-18T09:13:19;2.72;;;2.53;;
67564;SDS011;54393;53.556;49.216;2022-07-18T09:18:33;3.30;;;3.10;;
67564;SDS011;54393;53.556;49.216;2022-07-18T09:21:02;2.90;;;2.70;;
67564;SDS011;54393;53.556;49.216;2022-07-18T09:23:37;3.17;;;2.87;;
67564;SDS011;54393;53.556;49.216;2022-07-18T09:26:05;2.95;;;2.75;;
67564;SDS011;54393;53.556;49.216;2022-07-18T09:28:45;3.72;;;2.75;;
67564;SDS011;54393;53.556;49.216;2022-07-18T09:31:18;3.30;;;3.10;;
67564;SDS011;54393;53.556;49.216;2022-07-18T09:33:56;3.42;;;2.78;;
67564;SDS011;54393;53.556;49.216;2022-07-18T09:38:51;3.28;;;2.80;;
67564;SDS011;54393;53.556;49.216;2022-07-18T09:41:24;3.55;;;2.83;;
67564;SDS011;54393;53.556;49.216;2022-07-18T09:43:53;3.08;;;2.78;;
67564;SDS011;54393;53.556;49.216;2022-07-18T09:46:20;5.10;;;3.08;;
67564;SDS011;54393;53.556;49.216;2022-07-18T09:48:46;4.28;;;2.62;;
67564;SDS011;54393;53.556;49.216;2022-07-18T09:51:13;3.10;;;2.80;;
67564;SDS011;54393;53.556;49.216;2022-07-18T09:53:43;4.22;;;3.00;;
67564;SDS011;54393;53.556;49.216;2022-07-18T09:58:38;4.50;;;2.92;;
67564;SDS011;54393;53.556;49.216;2022-07-18T10:01:19;2.92;;;2.72;;
67564;SDS011;54393;53.556;49.216;2022-07-18T10:03:46;3.05;;;2.85;;
67564;SDS011;54393;53.556;49.216;2022-07-18T10:06:15;3.08;;;2.85;;
67564;SDS011;54393;53.556;49.216;2022-07-18T10:08:43;3.22;;;2.97;;
67564;SDS011;54393;53.556;49.216;2022-07-18T10:11:10;2.90;;;2.70;;
67564;SDS011;54393;53.556;49.216;2022-07-18T10:13:37;4.70;;;3.53;;
67564;SDS011;54393;53.556;49.216;2022-07-18T10:16:04;3.25;;;2.95;;
67564;SDS011;54393;53.556;49.216;2022-07-18T10:18:32;3.33;;;3.00;;
67564;SDS011;54393;53.556;49.216;2022-07-18T10:21:04;3.03;;;2.83;;
67564;SDS011;54393;53.556;49.216;2022-07-18T10:23:40;3.08;;;2.83;;
67564;SDS011;54393;53.556;49.216;2022-07-18T10:36:31;3.42;;;3.12;;
67564;SDS011;54393;53.556;49.216;2022-07-18T10:57:42;2.97;;;2.72;;
67564;SDS011;54393;53.556;49.216;2022-07-18T11:00:13;3.35;;;3.10;;
67564;SDS011;54393;53.556;49.216;2022-07-18T11:15:54;4.35;;;3.05;;
67564;SDS011;54393;53.556;49.216;2022-07-18T11:18:24;3.00;;;2.80;;
67564;SDS011;54393;53.556;49.216;2022-07-18T11:20:51;3.50;;;3.25;;
67564;SDS011;54393;53.556;49.216;2022-07-18T11:23:19;5.18;;;3.00;;
67564;SDS011;54393;53.556;49.216;2022-07-18T11:25:47;2.83;;;2.62;;
67564;SDS011;54393;53.556;49.216;2022-07-18T11:28:16;3.12;;;2.92;;
67564;SDS011;54393;53.556;49.216;2022-07-18T11:30:44;3.25;;;3.05;;
67564;SDS011;54393;53.556;49.216;2022-07-18T11:33:23;3.35;;;3.15;;
67564;SDS011;54393;53.556;49.216;2022-07-18T11:35:51;3.35;;;3.08;;
67564;SDS011;54393;53.556;49.216;2022-07-18T11:38:17;4.70;;;3.10;;
67564;SDS011;54393;53.556;49.216;2022-07-18T11:40:48;3.25;;;3.05;;
67564;SDS011;54393;53.556;49.216;2022-07-18T11:43:24;3.40;;;3.10;;
67564;SDS011;54393;53.556;49.216;2022-07-18T11:45:58;4.28;;;2.95;;
67564;SDS011;54393;53.556;49.216;2022-07-18T11:48:32;3.05;;;2.85;;
67564;SDS011;54393;53.556;49.216;2022-07-18T11:51:00;3.25;;;3.05;;
67564;SDS011;54393;53.556;49.216;2022-07-18T11:53:27;3.22;;;3.03;;
67564;SDS011;54393;53.556;49.216;2022-07-18T11:55:54;5.18;;;3.62;;
67564;SDS011;54393;53.556;49.216;2022-07-18T11:58:21;4.12;;;3.05;;
67564;SDS011;54393;53.556;49.216;2022-07-18T12:00:48;3.08;;;2.87;;
67564;SDS011;54393;53.556;49.216;2022-07-18T12:05:51;5.68;;;3.00;;
67564;SDS011;54393;53.556;49.216;2022-07-18T12:08:31;3.12;;;2.92;;
67564;SDS011;54393;53.556;49.216;2022-07-18T12:11:41;3.40;;;3.08;;
67564;SDS011;54393;53.556;49.216;2022-07-18T12:13:53;3.08;;;2.80;;
67564;SDS011;54393;53.556;49.216;2022-07-18T12:16:45;3.10;;;2.90;;
67564;SDS011;54393;53.556;49.216;2022-07-18T12:19:13;4.57;;;3.15;;
67564;SDS011;54393;53.556;49.216;2022-07-18T12:26:48;3.25;;;3.05;;
67564;SDS011;54393;53.556;49.216;2022-07-18T12:29:14;3.65;;;2.92;;
67564;SDS011;54393;53.556;49.216;2022-07-18T12:34:09;3.28;;;2.83;;
67564;SDS011;54393;53.556;49.216;2022-07-18T12:36:55;3.10;;;2.90;;
67564;SDS011;54393;53.556;49.216;2022-07-18T12:39:29;3.60;;;3.30;;
67564;SDS011;54393;53.556;49.216;2022-07-18T12:41:57;3.95;;;3.33;;
67564;SDS011;54393;53.556;49.216;2022-07-18T12:44:25;3.35;;;2.92;;
67564;SDS011;54393;53.556;49.216;2022-07-18T12:46:52;3.50;;;3.30;;
67564;SDS011;54393;53.556;49.216;2022-07-18T12:49:19;2.90;;;2.70;;
67564;SDS011;54393;53.556;49.216;2022-07-18T12:51:46;3.10;;;2.90;;
67564;SDS011;54393;53.556;49.216;2022-07-18T12:54:15;3.45;;;3.00;;
67564;SDS011;54393;53.556;49.216;2022-07-18T12:56:42;3.40;;;3.20;;
67564;SDS011;54393;53.556;49.216;2022-07-18T12:59:09;3.20;;;3.00;;
67564;SDS011;54393;53.556;49.216;2022-07-18T13:01:36;3.22;;;2.92;;
67564;SDS011;54393;53.556;49.216;2022-07-18T13:04:03;3.62;;;3.33;;
67564;SDS011;54393;53.556;49.216;2022-07-18T13:06:30;3.50;;;3.20;;
67564;SDS011;54393;53.556;49.216;2022-07-18T13:08:56;3.10;;;2.90;;
67564;SDS011;54393;53.556;49.216;2022-07-18T13:11:23;3.78;;;3.42;;
67564;SDS011;54393;53.556;49.216;2022-07-18T13:13:50;3.28;;;3.08;;
67564;SDS011;54393;53.556;49.216;2022-07-18T13:16:16;3.62;;;3.28;;
67564;SDS011;54393;53.556;49.216;2022-07-18T13:18:43;3.50;;;3.28;;
67564;SDS011;54393;53.556;49.216;2022-07-18T13:21:09;3.15;;;2.95;;
67564;SDS011;54393;53.556;49.216;2022-07-18T13:23:36;3.33;;;3.12;;
67564;SDS011;54393;53.556;49.216;2022-07-18T13:26:03;3.75;;;3.45;;
67564;SDS011;54393;53.556;49.216;2022-07-18T13:28:29;3.37;;;3.08;;
67564;SDS011;54393;53.556;49.216;2022-07-18T13:30:56;3.37;;;3.17;;
67564;SDS011;54393;53.556;49.216;2022-07-18T13:33:22;3.40;;;3.20;;
67564;SDS011;54393;53.556;49.216;2022-07-18T13:35:49;3.50;;;3.30;;
67564;SDS011;54393;53.556;49.216;2022-07-18T13:38:15;4.35;;;3.75;;
67564;SDS011;54393;53.556;49.216;2022-07-18T13:40:42;3.53;;;3.28;;
67564;SDS011;54393;53.556;49.216;2022-07-18T13:43:08;3.70;;;3.50;;
67564;SDS011;54393;53.556;49.216;2022-07-18T13:45:36;3.87;;;3.58;;
67564;SDS011;54393;53.556;49.216;2022-07-18T13:48:03;3.10;;;2.90;;
67564;SDS011;54393;53.556;49.216;2022-07-18T13:50:30;3.97;;;3.50;;
67564;SDS011;54393;53.556;49.216;2022-07-18T13:52:57;3.22;;;3.03;;
67564;SDS011;54393;53.556;49.216;2022-07-18T13:55:23;3.72;;;3.42;;
67564;SDS011;54393;53.556;49.216;2022-07-18T13:57:49;3.50;;;3.30;;
67564;SDS011;54393;53.556;49.216;2022-07-18T14:00:16;3.53;;;3.33;;
67564;SDS011;54393;53.556;49.216;2022-07-18T14:02:43;3.33;;;3.12;;
67564;SDS011;54393;53.556;49.216;2022-07-18T14:05:10;3.22;;;3.03;;
67564;SDS011;54393;53.556;49.216;2022-07-18T14:07:36;3.33;;;3.12;;
67564;SDS011;54393;53.556;49.216;2022-07-18T14:10:03;3.53;;;3.28;;
67564;SDS011;54393;53.556;49.216;2022-07-18T14:12:29;3.90;;;3.60;;
67564;SDS011;54393;53.556;49.216;2022-07-18T14:14:56;3.92;;;3.62;;
67564;SDS011;54393;53.556;49.216;2022-07-18T14:17:22;4.00;;;3.10;;
67564;SDS011;54393;53.556;49.216;2022-07-18T14:19:49;3.72;;;3.42;;
67564;SDS011;54393;53.556;49.216;2022-07-18T14:22:15;3.92;;;3.62;;
67564;SDS011;54393;53.556;49.216;2022-07-18T14:24:42;3.58;;;3.35;;
67564;SDS011;54393;53.556;49.216;2022-07-18T14:27:08;3.87;;;3.53;;
67564;SDS011;54393;53.556;49.216;2022-07-18T14:29:35;3.40;;;3.20;;
67564;SDS011;54393;53.556;49.216;2022-07-18T14:32:02;3.83;;;3.53;;
67564;SDS011;54393;53.556;49.216;2022-07-18T14:34:28;3.42;;;3.22;;
67564;SDS011;54393;53.556;49.216;2022-07-18T14:36:55;3.90;;;3.60;;
67564;SDS011;54393;53.556;49.216;2022-07-18T14:39:21;3.70;;;3.40;;
67564;SDS011;54393;53.556;49.216;2022-07-18T14:41:48;3.70;;;3.50;;
67564;SDS011;54393;53.556;49.216;2022-07-18T14:44:14;3.58;;;3.33;;
67564;SDS011;54393;53.556;49.216;2022-07-18T14:46:41;3.60;;;3.40;;
67564;SDS011;54393;53.556;49.216;2022-07-18T14:49:07;3.47;;;3.25;;
67564;SDS011;54393;53.556;49.216;2022-07-18T14:51:34;3.80;;;3.50;;
67564;SDS011;54393;53.556;49.216;2022-07-18T14:54:00;3.70;;;3.40;;
67564;SDS011;54393;53.556;49.216;2022-07-18T14:56:27;3.67;;;3.37;;
67564;SDS011;54393;53.556;49.216;2022-07-18T14:58:53;3.53;;;3.33;;
67564;SDS011;54393;53.556;49.216;2022-07-18T15:01:20;4.25;;;3.85;;
67564;SDS011;54393;53.556;49.216;2022-07-18T15:03:46;3.60;;;3.30;;
67564;SDS011;54393;53.556;49.216;2022-07-18T15:06:13;3.62;;;3.33;;
67564;SDS011;54393;53.556;49.216;2022-07-18T15:08:39;4.05;;;3.30;;
67564;SDS011;54393;53.556;49.216;2022-07-18T15:11:06;3.62;;;3.42;;
67564;SDS011;54393;53.556;49.216;2022-07-18T15:13:32;4.30;;;3.65;;
67564;SDS011;54393;53.556;49.216;2022-07-18T15:15:59;3.78;;;3.58;;
67564;SDS011;54393;53.556;49.216;2022-07-18T15:18:25;3.50;;;3.30;;
67564;SDS011;54393;53.556;49.216;2022-07-18T15:20:52;3.50;;;3.25;;
67564;SDS011;54393;53.556;49.216;2022-07-18T15:23:18;3.30;;;3.20;;
67564;SDS011;54393;53.556;49.216;2022-07-18T15:25:45;3.65;;;3.45;;
67564;SDS011;54393;53.556;49.216;2022-07-18T15:28:11;3.50;;;3.30;;
67564;SDS011;54393;53.556;49.216;2022-07-18T15:30:38;3.70;;;3.50;;
67564;SDS011;54393;53.556;49.216;2022-07-18T15:33:04;3.45;;;3.20;;
67564;SDS011;54393;53.556;49.216;2022-07-18T15:35:31;3.40;;;3.05;;